createdAt,value
2018-12-01T00:02:31.175Z,22.1
2018-12-01T00:12:30.375Z,21.9
2018-12-01T00:22:29.586Z,21.9
2018-12-01T00:32:28.777Z,22.1
2018-12-01T00:42:28.008Z,21.9
2018-12-01T00:52:27.185Z,22.1
2018-12-01T01:02:26.410Z,21.9
2018-12-01T01:12:25.596Z,21.7
2018-12-01T01:22:24.798Z,21.6
2018-12-01T01:32:24.012Z,21.9
2018-12-01T01:42:23.209Z,21.9
2018-12-01T01:52:22.411Z,21.8
2018-12-01T02:02:21.617Z,21.9
2018-12-01T02:12:20.823Z,21.9
2018-12-01T02:22:20.038Z,21.9
2018-12-01T02:32:19.230Z,21.9
2018-12-01T02:42:18.442Z,21.7
2018-12-01T02:52:17.636Z,21.6
2018-12-01T03:02:16.843Z,21.9
2018-12-01T03:12:16.043Z,22
2018-12-01T03:22:15.252Z,21.9
2018-12-01T03:32:14.459Z,21.8
2018-12-01T03:42:13.663Z,21.7
2018-12-01T03:52:12.858Z,21.9
2018-12-01T04:02:12.062Z,21.9
2018-12-01T04:12:11.269Z,21.9
2018-12-01T04:22:10.472Z,21.9
2018-12-01T04:32:09.674Z,21.9
2018-12-01T04:42:08.878Z,21.9
2018-12-01T04:52:08.076Z,21.9
2018-12-01T05:02:07.288Z,21.8
2018-12-01T05:12:06.491Z,21.6
2018-12-01T05:22:05.699Z,21.8
2018-12-01T05:32:04.904Z,21.7
2018-12-01T05:42:04.106Z,21.6
2018-12-01T05:52:03.314Z,21.8
2018-12-01T06:02:02.530Z,22
2018-12-01T06:12:01.736Z,21.8
2018-12-01T06:22:00.940Z,22.3
2018-12-01T06:32:00.143Z,22.2
2018-12-01T06:41:59.348Z,22.5
2018-12-01T06:51:58.567Z,22.8
2018-12-01T07:01:57.771Z,23.1
2018-12-01T07:11:56.974Z,23.5
2018-12-01T07:21:56.178Z,23.6
2018-12-01T07:31:55.393Z,23.3
2018-12-01T07:41:54.595Z,23
2018-12-01T07:51:53.800Z,23
2018-12-01T08:01:53.005Z,22.9
2018-12-01T08:11:52.220Z,22.8
2018-12-01T08:21:51.416Z,22.8
2018-12-01T11:21:37.175Z,22.6
2018-12-01T11:31:36.383Z,22.5
2018-12-01T11:41:35.582Z,22.4
2018-12-01T11:51:34.793Z,22.4
2018-12-01T12:01:34.007Z,22.3
2018-12-01T12:11:33.220Z,22.3
2018-12-01T12:21:32.420Z,22.4
2018-12-01T12:31:31.629Z,22.3
2018-12-01T12:41:30.844Z,22.2
2018-12-01T12:51:30.049Z,22.1
2018-12-01T13:01:29.253Z,22.1
2018-12-01T13:11:28.457Z,21.9
2018-12-01T13:21:27.669Z,22.1
2018-12-01T13:31:26.870Z,22
2018-12-01T13:41:26.079Z,21.9
2018-12-01T13:51:25.280Z,21.9
2018-12-01T14:01:24.481Z,21.8
2018-12-01T14:11:24.239Z,22.1
2018-12-01T14:21:22.897Z,22.1
2018-12-01T14:31:22.102Z,21.9
2018-12-01T14:41:21.299Z,21.8
2018-12-01T14:51:20.509Z,22.1
2018-12-01T15:01:19.710Z,22.1
2018-12-01T15:11:18.919Z,21.9
2018-12-01T15:21:18.130Z,21.8
2018-12-01T15:31:17.334Z,21.7
2018-12-01T15:41:16.548Z,21.6
2018-12-01T15:51:15.757Z,21.8
2018-12-01T16:01:14.959Z,22.1
2018-12-01T16:11:14.165Z,22.3
2018-12-01T16:21:13.393Z,22.3
2018-12-01T16:31:12.581Z,22.1
2018-12-01T16:41:11.791Z,22
2018-12-01T16:51:11.007Z,21.9
2018-12-01T17:01:10.213Z,21.8
2018-12-01T17:11:09.419Z,21.8
2018-12-01T17:21:08.633Z,21.8
2018-12-01T17:31:07.856Z,21.8
2018-12-01T17:41:07.066Z,21.9
2018-12-01T17:51:06.284Z,22.1
2018-12-01T18:01:05.492Z,21.9
2018-12-01T18:11:04.710Z,21.8
2018-12-01T18:21:03.908Z,21.7
2018-12-01T18:31:03.118Z,21.8
2018-12-01T18:41:02.327Z,21.9
2018-12-01T18:51:01.547Z,21.8
2018-12-01T19:01:00.750Z,21.7
2018-12-01T19:10:59.954Z,21.7
2018-12-01T19:20:59.163Z,21.7
2018-12-01T19:30:58.379Z,21.7
2018-12-01T19:40:57.588Z,21.6
2018-12-01T19:50:56.795Z,21.9
2018-12-01T20:00:56.014Z,22.3
2018-12-01T20:10:55.224Z,22.1
2018-12-01T20:20:54.438Z,21.9
2018-12-01T20:30:53.648Z,21.8
2018-12-01T20:40:57.446Z,21.8
2018-12-01T20:50:52.071Z,21.8
2018-12-01T21:00:51.279Z,21.8
2018-12-01T21:10:50.490Z,21.9
2018-12-01T21:20:49.691Z,22
2018-12-01T21:30:48.896Z,21.9
2018-12-01T21:40:48.108Z,21.8
2018-12-01T21:50:47.316Z,21.7
2018-12-01T22:00:46.569Z,21.6
2018-12-01T22:10:45.722Z,21.9
2018-12-01T22:20:44.932Z,21.8
2018-12-01T22:30:44.139Z,21.8
2018-12-01T22:40:43.337Z,21.7
2018-12-01T22:50:42.538Z,21.6
2018-12-01T23:00:41.748Z,21.6
2018-12-01T23:10:40.955Z,21.5
2018-12-01T23:20:40.161Z,21.6
2018-12-01T23:30:39.367Z,21.9
2018-12-01T23:40:38.563Z,21.9
2018-12-01T23:50:37.766Z,22
